Time;durP1;ratioP1;P1;durP2;ratioP2;P2;SDS_P1;SDS_P2;PMS_P1;PMS_P2;Temp;Humidity;BMP_temperature;BMP_pressure;BME280_temperature;BME280_humidity;BME280_pressure;Samples;Min_cycle;Max_cycle;Signal;HPM_P1;HPM_P2
2021/10/01 00:00:08;;;;;;;3.58;2.83;;;;;;;;;;4990741;28;20050;-78
2021/10/01 00:02:36;;;;;;;3.08;2.88;;;;;;;;;;4972889;28;20053;-79
2021/10/01 00:05:04;;;;;;;6.53;2.75;;;;;;;;;;4990528;28;20415;-80
2021/10/01 00:07:32;;;;;;;7.30;4.35;;;;;;;;;;5000333;28;20058;-80
2021/10/01 00:10:00;;;;;;;2.50;2.38;;;;;;;;;;5009208;28;20045;-80
2021/10/01 00:12:28;;;;;;;3.13;2.92;;;;;;;;;;4977061;28;20395;-80
2021/10/01 00:14:56;;;;;;;3.25;3.05;;;;;;;;;;4983443;28;20062;-81
2021/10/01 00:17:24;;;;;;;2.65;2.45;;;;;;;;;;4958872;28;20046;-80
2021/10/01 00:19:53;;;;;;;3.22;3.03;;;;;;;;;;4966561;28;20496;-80
2021/10/01 00:22:21;;;;;;;3.50;2.50;;;;;;;;;;4973463;28;20051;-80
2021/10/01 00:24:52;;;;;;;8.25;3.58;;;;;;;;;;4955107;28;20618;-80
2021/10/01 00:27:20;;;;;;;3.25;3.05;;;;;;;;;;4973139;28;20055;-80
2021/10/01 00:29:48;;;;;;;3.58;3.28;;;;;;;;;;4955869;28;20050;-80
2021/10/01 00:32:16;;;;;;;3.13;2.92;;;;;;;;;;4956156;28;20055;-80
2021/10/01 00:34:49;;;;;;;2.97;2.78;;;;;;;;;;4962177;28;20043;-80
2021/10/01 00:37:17;;;;;;;11.52;3.63;;;;;;;;;;4990922;28;20047;-80
2021/10/01 00:39:45;;;;;;;2.35;2.25;;;;;;;;;;4992683;28;20043;-80
2021/10/01 00:42:13;;;;;;;3.38;3.08;;;;;;;;;;4991435;28;20058;-80
2021/10/01 00:44:41;;;;;;;6.65;3.75;;;;;;;;;;4992314;28;20387;-80
2021/10/01 00:47:09;;;;;;;3.55;2.75;;;;;;;;;;4992563;28;20652;-80
2021/10/01 00:49:37;;;;;;;3.67;3.38;;;;;;;;;;4992448;28;20053;-80
2021/10/01 00:52:05;;;;;;;2.63;2.42;;;;;;;;;;4975055;28;20042;-80
2021/10/01 00:54:35;;;;;;;4.45;2.88;;;;;;;;;;4990354;28;20046;-80
2021/10/01 00:57:03;;;;;;;3.67;3.33;;;;;;;;;;4974125;28;20058;-80
2021/10/01 00:59:31;;;;;;;6.38;3.30;;;;;;;;;;4975344;28;20506;-80
2021/10/01 01:02:00;;;;;;;4.40;3.25;;;;;;;;;;4957911;28;20050;-80
2021/10/01 01:04:29;;;;;;;2.40;2.30;;;;;;;;;;4985351;28;20049;-80
2021/10/01 01:07:03;;;;;;;2.97;2.63;;;;;;;;;;4994018;28;20402;-80
2021/10/01 01:09:31;;;;;;;3.10;2.90;;;;;;;;;;4983701;28;20527;-80
2021/10/01 01:12:19;;;;;;;3.88;3.58;;;;;;;;;;4979078;28;20400;-80
2021/10/01 01:15:06;;;;;;;2.42;2.22;;;;;;;;;;4958571;28;20050;-80
2021/10/01 01:17:59;;;;;;;3.53;3.22;;;;;;;;;;4974279;28;20054;-80
2021/10/01 01:20:32;;;;;;;7.90;2.85;;;;;;;;;;4967124;28;20069;-80
2021/10/01 01:23:09;;;;;;;5.15;4.18;;;;;;;;;;4974056;28;20047;-80
2021/10/01 01:26:04;;;;;;;4.82;3.50;;;;;;;;;;4984535;28;20050;-80
2021/10/01 01:28:35;;;;;;;3.83;3.42;;;;;;;;;;4947394;28;20059;-81
2021/10/01 01:31:11;;;;;;;3.78;3.47;;;;;;;;;;4954975;28;20078;-80
2021/10/01 01:33:40;;;;;;;4.30;3.90;;;;;;;;;;4960004;28;20054;-80
2021/10/01 01:36:10;;;;;;;4.30;3.55;;;;;;;;;;4986759;28;20097;-80
2021/10/01 01:38:40;;;;;;;5.40;4.45;;;;;;;;;;5006453;28;20061;-80
2021/10/01 01:41:10;;;;;;;4.07;3.28;;;;;;;;;;4989085;28;20046;-80
2021/10/01 01:43:38;;;;;;;4.25;3.95;;;;;;;;;;4990505;28;20051;-80
2021/10/01 01:46:08;;;;;;;3.92;3.65;;;;;;;;;;4986353;28;20043;-80
2021/10/01 01:48:37;;;;;;;3.30;3.10;;;;;;;;;;4971350;28;20046;-80
2021/10/01 01:51:06;;;;;;;3.78;2.88;;;;;;;;;;4954337;28;20043;-80
2021/10/01 01:53:35;;;;;;;3.63;3.33;;;;;;;;;;4955931;28;20058;-80
2021/10/01 01:56:04;;;;;;;2.97;2.78;;;;;;;;;;4972947;28;20054;-80
2021/10/01 01:58:32;;;;;;;6.57;4.50;;;;;;;;;;4969294;28;20047;-80
2021/10/01 02:01:16;;;;;;;2.90;2.70;;;;;;;;;;4948389;28;20050;-80
2021/10/01 02:04:03;;;;;;;3.80;2.53;;;;;;;;;;4993404;28;20481;-81
2021/10/01 02:06:31;;;;;;;3.78;3.38;;;;;;;;;;5010173;28;20419;-80
2021/10/01 02:09:00;;;;;;;3.75;3.55;;;;;;;;;;4993138;28;20050;-80
2021/10/01 02:11:30;;;;;;;4.63;4.32;;;;;;;;;;4992359;28;20423;-80
2021/10/01 02:14:01;;;;;;;3.97;3.45;;;;;;;;;;4992825;28;20396;-80
2021/10/01 02:16:30;;;;;;;4.22;3.92;;;;;;;;;;4992727;28;20050;-80
2021/10/01 02:18:59;;;;;;;3.30;3.10;;;;;;;;;;5007397;28;20475;-80
2021/10/01 02:21:28;;;;;;;3.95;3.65;;;;;;;;;;4971976;28;20050;-80
2021/10/01 02:23:57;;;;;;;3.75;3.13;;;;;;;;;;4973653;28;20084;-80
2021/10/01 02:26:37;;;;;;;5.60;4.60;;;;;;;;;;4964858;28;20058;-80
2021/10/01 02:29:05;;;;;;;8.05;3.72;;;;;;;;;;4989480;28;20050;-80
2021/10/01 02:31:38;;;;;;;3.28;3.03;;;;;;;;;;4956966;28;20404;-80
2021/10/01 02:34:06;;;;;;;6.07;3.97;;;;;;;;;;4973084;28;20412;-80
2021/10/01 02:36:35;;;;;;;3.65;3.35;;;;;;;;;;4972330;28;20061;-80
2021/10/01 02:39:03;;;;;;;3.90;3.35;;;;;;;;;;4972920;28;20042;-80
2021/10/01 02:41:32;;;;;;;4.60;4.03;;;;;;;;;;4972110;28;20038;-80
2021/10/01 02:44:00;;;;;;;4.15;3.83;;;;;;;;;;4990719;28;20050;-80
2021/10/01 02:46:28;;;;;;;4.70;4.30;;;;;;;;;;4972579;28;20046;-80
2021/10/01 02:48:56;;;;;;;3.63;2.88;;;;;;;;;;4972603;28;20058;-80
2021/10/01 02:51:25;;;;;;;5.25;4.07;;;;;;;;;;4989943;28;20395;-80
2021/10/01 02:54:05;;;;;;;7.30;6.07;;;;;;;;;;4957176;28;20086;-80
2021/10/01 02:56:37;;;;;;;4.75;4.32;;;;;;;;;;4989421;28;20062;-80
2021/10/01 02:59:06;;;;;;;6.03;4.97;;;;;;;;;;4990702;28;20472;-80
2021/10/01 03:01:37;;;;;;;3.63;3.33;;;;;;;;;;4972214;28;20054;-80
2021/10/01 03:04:08;;;;;;;3.58;3.28;;;;;;;;;;4980698;28;20054;-80
2021/10/01 03:06:38;;;;;;;5.73;5.23;;;;;;;;;;4991771;28;20046;-80
2021/10/01 03:09:06;;;;;;;5.78;4.00;;;;;;;;;;4984927;28;20051;-80
2021/10/01 03:11:39;;;;;;;4.95;4.55;;;;;;;;;;4953218;28;20054;-80
2021/10/01 03:14:07;;;;;;;6.00;4.03;;;;;;;;;;4970395;28;20046;-80
2021/10/01 03:16:36;;;;;;;7.80;4.47;;;;;;;;;;4952949;28;20093;-80
2021/10/01 03:19:05;;;;;;;3.92;3.63;;;;;;;;;;4954126;28;20054;-80
2021/10/01 03:21:34;;;;;;;4.35;3.95;;;;;;;;;;4969971;28;20054;-80
2021/10/01 03:24:03;;;;;;;6.03;4.88;;;;;;;;;;4955121;28;20051;-80
2021/10/01 03:26:32;;;;;;;6.85;3.30;;;;;;;;;;4987313;28;20047;-80
2021/10/01 03:29:00;;;;;;;4.28;3.88;;;;;;;;;;4988577;28;20050;-80
2021/10/01 03:31:28;;;;;;;4.47;4.18;;;;;;;;;;4990072;28;20057;-80
2021/10/01 03:33:57;;;;;;;3.47;3.28;;;;;;;;;;4992254;28;20062;-80
2021/10/01 03:36:25;;;;;;;2.80;2.60;;;;;;;;;;5005857;28;20054;-80
2021/10/01 03:38:56;;;;;;;4.00;3.60;;;;;;;;;;4991556;28;20058;-80
2021/10/01 03:41:25;;;;;;;4.95;3.50;;;;;;;;;;4975449;28;20055;-80
2021/10/01 03:43:55;;;;;;;3.08;2.85;;;;;;;;;;4976438;28;20051;-80
2021/10/01 03:46:23;;;;;;;21.00;4.28;;;;;;;;;;4993149;28;20046;-80
2021/10/01 03:48:51;;;;;;;6.22;3.85;;;;;;;;;;4975804;28;20488;-80
2021/10/01 03:51:23;;;;;;;3.88;3.50;;;;;;;;;;4992941;28;20681;-80
2021/10/01 03:53:54;;;;;;;10.32;2.92;;;;;;;;;;4959075;28;20050;-80
2021/10/01 03:56:22;;;;;;;4.88;4.47;;;;;;;;;;4975706;28;20050;-80
2021/10/01 03:58:50;;;;;;;3.50;3.20;;;;;;;;;;4975964;28;20093;-80
2021/10/01 04:01:19;;;;;;;3.95;3.60;;;;;;;;;;4992489;28;20049;-80
2021/10/01 04:03:48;;;;;;;3.65;3.25;;;;;;;;;;4981316;28;20041;-80
2021/10/01 04:06:17;;;;;;;4.47;4.07;;;;;;;;;;4991576;28;20065;-80
2021/10/01 04:08:46;;;;;;;3.88;3.53;;;;;;;;;;4972635;28;20077;-81
2021/10/01 04:11:15;;;;;;;3.40;3.10;;;;;;;;;;4972110;28;20050;-80
2021/10/01 04:13:43;;;;;;;3.78;3.15;;;;;;;;;;4972278;28;20051;-80
2021/10/01 04:16:11;;;;;;;17.80;3.63;;;;;;;;;;4972625;28;20405;-80
2021/10/01 04:18:43;;;;;;;11.55;4.18;;;;;;;;;;4971586;28;20042;-80
2021/10/01 04:25:25;;;;;;;4.22;2.88;;;;;;;;;;4972073;28;20042;-80
2021/10/01 04:27:53;;;;;;;4.00;3.70;;;;;;;;;;4956615;28;20054;-81
2021/10/01 04:30:22;;;;;;;5.07;4.15;;;;;;;;;;4971340;28;20046;-80
2021/10/01 04:33:01;;;;;;;4.70;4.18;;;;;;;;;;4972319;28;20055;-80
2021/10/01 04:35:31;;;;;;;4.90;4.20;;;;;;;;;;4972026;28;20374;-80
2021/10/01 04:37:59;;;;;;;4.60;3.90;;;;;;;;;;4973290;28;20119;-80
2021/10/01 04:40:27;;;;;;;5.18;4.72;;;;;;;;;;4971464;28;20043;-81
2021/10/01 04:42:55;;;;;;;4.72;4.18;;;;;;;;;;4971348;28;20061;-81
2021/10/01 04:45:23;;;;;;;4.63;4.25;;;;;;;;;;4970841;28;20058;-81
2021/10/01 04:47:51;;;;;;;4.53;4.22;;;;;;;;;;4972222;28;20054;-81
2021/10/01 04:50:19;;;;;;;4.10;3.80;;;;;;;;;;4970845;28;20062;-78
2021/10/01 04:52:47;;;;;;;3.92;3.63;;;;;;;;;;4971390;28;20618;-79
2021/10/01 04:55:21;;;;;;;4.22;3.83;;;;;;;;;;4971216;28;20054;-80
2021/10/01 04:57:50;;;;;;;4.90;4.40;;;;;;;;;;4971283;28;20061;-82
2021/10/01 05:00:36;;;;;;;3.78;3.45;;;;;;;;;;4970134;28;20049;-82
2021/10/01 05:03:23;;;;;;;28.85;7.40;;;;;;;;;;4965485;28;20047;-81
2021/10/01 05:06:11;;;;;;;15.18;3.33;;;;;;;;;;4952964;28;20480;-80
2021/10/01 05:08:57;;;;;;;3.35;2.95;;;;;;;;;;4959140;28;20050;-81
2021/10/01 05:11:44;;;;;;;3.00;2.70;;;;;;;;;;4968586;28;20058;-81
2021/10/01 05:14:32;;;;;;;3.15;2.85;;;;;;;;;;4964241;28;20042;-80
2021/10/01 05:17:25;;;;;;;6.18;3.80;;;;;;;;;;4951127;28;20055;-82
2021/10/01 05:20:13;;;;;;;3.13;2.80;;;;;;;;;;4952685;28;20043;-84
2021/10/01 05:22:52;;;;;;;3.53;3.25;;;;;;;;;;4932323;28;20426;-82
2021/10/01 05:25:21;;;;;;;3.22;2.92;;;;;;;;;;4958311;28;20389;-83
2021/10/01 05:27:49;;;;;;;3.85;3.45;;;;;;;;;;4971553;28;20039;-82
2021/10/01 05:30:21;;;;;;;3.93;3.63;;;;;;;;;;4971545;28;20039;-82
2021/10/01 05:32:49;;;;;;;3.03;2.80;;;;;;;;;;4954845;28;20042;-81
2021/10/01 05:35:17;;;;;;;4.50;4.18;;;;;;;;;;4960295;28;20039;-82
2021/10/01 05:37:46;;;;;;;4.88;4.18;;;;;;;;;;4969294;28;20408;-83
2021/10/01 05:40:14;;;;;;;4.20;3.80;;;;;;;;;;4967397;28;20049;-83
2021/10/01 05:42:42;;;;;;;5.38;4.88;;;;;;;;;;4968838;28;20043;-84
2021/10/01 05:45:11;;;;;;;5.82;5.25;;;;;;;;;;4968782;28;20050;-83
2021/10/01 05:48:18;;;;;;;4.65;4.25;;;;;;;;;;4910051;29;20056;-83
2021/10/01 05:51:07;;;;;;;5.22;4.13;;;;;;;;;;4889889;29;20043;-83
2021/10/01 05:57:14;;;;;;;5.07;4.25;;;;;;;;;;4907631;29;20135;-84
2021/10/01 06:00:01;;;;;;;7.78;7.10;;;;;;;;;;4902094;29;20048;-83
2021/10/01 06:02:29;;;;;;;4.30;3.65;;;;;;;;;;4922002;29;20059;-83
2021/10/01 06:04:57;;;;;;;6.25;5.65;;;;;;;;;;4943856;28;20043;-83
2021/10/01 06:10:53;;;;;;;5.32;4.82;;;;;;;;;;5666004;23;20408;-83
2021/10/01 06:13:22;;;;;;;5.70;4.15;;;;;;;;;;4948469;29;20047;-82
2021/10/01 06:15:49;;;;;;;4.82;4.15;;;;;;;;;;4932671;29;20043;-82
2021/10/01 06:18:17;;;;;;;4.70;4.38;;;;;;;;;;4948993;28;20051;-82
2021/10/01 06:20:46;;;;;;;3.80;3.60;;;;;;;;;;4948636;28;20048;-81
2021/10/01 06:23:16;;;;;;;4.60;4.10;;;;;;;;;;4950539;29;20469;-81
2021/10/01 06:25:45;;;;;;;4.00;3.60;;;;;;;;;;4948320;28;20043;-81
2021/10/01 06:28:13;;;;;;;3.50;2.72;;;;;;;;;;4950515;29;20066;-81
2021/10/01 06:30:42;;;;;;;3.50;3.20;;;;;;;;;;4949060;28;20042;-81
2021/10/01 06:33:09;;;;;;;3.17;2.97;;;;;;;;;;4949848;28;20610;-80
2021/10/01 06:35:38;;;;;;;4.57;4.18;;;;;;;;;;4949999;29;20047;-82
2021/10/01 06:38:06;;;;;;;3.00;2.78;;;;;;;;;;4948619;29;20097;-81
2021/10/01 06:40:34;;;;;;;4.60;3.20;;;;;;;;;;4947957;28;20047;-80
2021/10/01 06:43:06;;;;;;;3.05;2.85;;;;;;;;;;4946898;29;20058;-81
2021/10/01 06:45:35;;;;;;;2.80;2.60;;;;;;;;;;4945513;29;20043;-81
2021/10/01 07:24:04;;;;;;;3.03;2.70;;;;;;;;;;4930023;29;20528;-84
2021/10/01 08:19:53;;;;;;;3.83;3.20;;;;;;;;;;4920262;29;20052;-85
2021/10/01 08:22:21;;;;;;;4.82;3.58;;;;;;;;;;4932639;29;20055;-85
2021/10/01 08:24:50;;;;;;;7.65;4.50;;;;;;;;;;4933282;28;20048;-85
2021/10/01 08:27:18;;;;;;;4.18;3.28;;;;;;;;;;4928638;29;20047;-83
2021/10/01 08:29:46;;;;;;;8.80;3.20;;;;;;;;;;4931363;29;20043;-84
2021/10/01 08:32:14;;;;;;;4.20;3.88;;;;;;;;;;4931923;29;20066;-84
2021/10/01 08:34:45;;;;;;;3.25;3.05;;;;;;;;;;4932862;29;20047;-85
2021/10/01 08:37:14;;;;;;;3.78;3.47;;;;;;;;;;4933020;29;20059;-84
2021/10/01 08:39:44;;;;;;;3.67;3.33;;;;;;;;;;4933375;29;20055;-85
2021/10/01 08:42:27;;;;;;;3.63;3.33;;;;;;;;;;4930780;29;20044;-87
2021/10/01 08:44:56;;;;;;;5.00;4.18;;;;;;;;;;4933050;29;20063;-86
2021/10/01 08:47:27;;;;;;;4.47;2.92;;;;;;;;;;4927143;29;20070;-84
2021/10/01 08:50:00;;;;;;;2.83;2.63;;;;;;;;;;4930941;29;20059;-86
2021/10/01 08:52:28;;;;;;;5.18;4.05;;;;;;;;;;4933089;29;20474;-85
2021/10/01 08:54:58;;;;;;;3.90;3.45;;;;;;;;;;4928720;29;20079;-85
2021/10/01 08:57:27;;;;;;;3.92;3.58;;;;;;;;;;4925856;29;20048;-84
2021/10/01 08:59:55;;;;;;;3.30;3.05;;;;;;;;;;4918203;29;20060;-83
2021/10/01 09:02:27;;;;;;;4.00;3.70;;;;;;;;;;4932491;29;20055;-85
2021/10/01 09:04:55;;;;;;;3.05;2.78;;;;;;;;;;4932376;28;20059;-83
2021/10/01 09:07:23;;;;;;;4.97;4.47;;;;;;;;;;4932791;29;20452;-83
2021/10/01 09:09:53;;;;;;;3.72;3.35;;;;;;;;;;4931719;29;20044;-84
2021/10/01 09:12:26;;;;;;;5.90;3.58;;;;;;;;;;4926801;29;20094;-84
2021/10/01 09:14:56;;;;;;;6.05;3.03;;;;;;;;;;4931111;29;20047;-82
2021/10/01 09:17:29;;;;;;;3.63;3.25;;;;;;;;;;4930879;29;20059;-84
2021/10/01 09:20:07;;;;;;;3.33;3.08;;;;;;;;;;4929941;29;20051;-83
2021/10/01 09:22:36;;;;;;;4.43;4.07;;;;;;;;;;4931166;29;20067;-82
2021/10/01 09:25:08;;;;;;;3.38;3.08;;;;;;;;;;4930864;28;20051;-84
2021/10/01 09:27:43;;;;;;;9.20;3.30;;;;;;;;;;4931695;29;20498;-84
2021/10/01 09:30:24;;;;;;;3.60;3.30;;;;;;;;;;4931177;29;20044;-86
2021/10/01 09:33:04;;;;;;;6.07;3.70;;;;;;;;;;4915196;29;20048;-82
2021/10/01 09:35:32;;;;;;;3.42;3.13;;;;;;;;;;4935248;29;20055;-84
2021/10/01 09:38:16;;;;;;;3.75;2.63;;;;;;;;;;4933278;29;20055;-85
2021/10/01 09:40:45;;;;;;;3.55;2.97;;;;;;;;;;4908975;29;20509;-85
2021/10/01 09:43:30;;;;;;;3.25;3.00;;;;;;;;;;4898950;29;20052;-84
2021/10/01 09:46:03;;;;;;;2.90;2.60;;;;;;;;;;4926872;29;20445;-79
2021/10/01 09:48:34;;;;;;;2.60;2.38;;;;;;;;;;4912534;29;20055;-79
2021/10/01 09:51:11;;;;;;;3.42;3.13;;;;;;;;;;4911217;29;20496;-81
2021/10/01 09:53:47;;;;;;;3.25;3.00;;;;;;;;;;4912614;29;20571;-83
2021/10/01 09:56:25;;;;;;;3.10;2.78;;;;;;;;;;4911073;29;20059;-82
2021/10/01 09:59:09;;;;;;;3.35;3.05;;;;;;;;;;4895028;29;20048;-82
2021/10/01 10:01:58;;;;;;;5.45;4.95;;;;;;;;;;4927886;28;20040;-82
2021/10/01 10:04:27;;;;;;;7.80;3.72;;;;;;;;;;4914464;29;20055;-82
2021/10/01 10:06:55;;;;;;;4.32;3.65;;;;;;;;;;4929581;29;20055;-82
2021/10/01 10:09:31;;;;;;;3.90;2.60;;;;;;;;;;4930373;28;20409;-82
2021/10/01 10:12:01;;;;;;;3.33;3.03;;;;;;;;;;4927713;29;20365;-81
2021/10/01 10:14:41;;;;;;;3.50;3.25;;;;;;;;;;4926057;29;20056;-83
2021/10/01 10:17:13;;;;;;;4.95;4.55;;;;;;;;;;4913622;29;20071;-80
2021/10/01 10:19:46;;;;;;;3.65;3.35;;;;;;;;;;4911951;29;20505;-82
2021/10/01 10:22:15;;;;;;;3.35;2.85;;;;;;;;;;4911617;29;20314;-79
2021/10/01 10:24:43;;;;;;;3.55;3.17;;;;;;;;;;4912455;29;20359;-83
2021/10/01 10:27:11;;;;;;;7.05;3.35;;;;;;;;;;4910715;29;20048;-81
2021/10/01 10:29:40;;;;;;;2.90;2.70;;;;;;;;;;4911177;29;20063;-81
2021/10/01 10:32:10;;;;;;;2.58;2.38;;;;;;;;;;4930994;29;20327;-80
2021/10/01 10:34:48;;;;;;;3.03;2.40;;;;;;;;;;4930525;29;20047;-81
2021/10/01 10:37:16;;;;;;;3.75;2.53;;;;;;;;;;4929438;29;20509;-79
2021/10/01 10:39:46;;;;;;;2.67;2.47;;;;;;;;;;4929781;29;20058;-80
2021/10/01 10:42:20;;;;;;;6.28;2.50;;;;;;;;;;4927028;29;20047;-80
2021/10/01 10:44:48;;;;;;;2.30;2.10;;;;;;;;;;4929665;29;20270;-81
2021/10/01 10:47:35;;;;;;;2.95;2.70;;;;;;;;;;4930125;29;20059;-80
2021/10/01 10:50:26;;;;;;;2.75;2.45;;;;;;;;;;4912438;29;20055;-81
2021/10/01 10:55:45;;;;;;;2.13;1.92;;;;;;;;;;4923988;29;20311;-81
2021/10/01 10:58:22;;;;;;;18.92;5.47;;;;;;;;;;4929423;29;20055;-81
2021/10/01 11:01:01;;;;;;;2.75;2.40;;;;;;;;;;4926854;29;20584;-81
2021/10/01 11:03:34;;;;;;;2.40;2.03;;;;;;;;;;4929838;29;20481;-82
2021/10/01 11:06:08;;;;;;;2.30;2.10;;;;;;;;;;4930381;28;20047;-81
2021/10/01 11:08:40;;;;;;;3.70;2.10;;;;;;;;;;4910490;29;20497;-82
2021/10/01 11:11:27;;;;;;;3.05;2.75;;;;;;;;;;4908063;29;20318;-81
2021/10/01 11:14:13;;;;;;;4.82;2.20;;;;;;;;;;4897397;29;20051;-81
2021/10/01 11:16:45;;;;;;;3.70;3.45;;;;;;;;;;4942899;29;20052;-82
2021/10/01 11:19:13;;;;;;;4.20;2.53;;;;;;;;;;4931290;29;20381;-81
2021/10/01 11:21:42;;;;;;;2.05;1.95;;;;;;;;;;4926209;28;20047;-82
2021/10/01 11:24:15;;;;;;;2.80;2.60;;;;;;;;;;4922037;29;20089;-81
2021/10/01 11:26:50;;;;;;;2.28;1.80;;;;;;;;;;4928407;29;20052;-82
2021/10/01 11:29:23;;;;;;;1.90;1.80;;;;;;;;;;4913371;29;20048;-79
2021/10/01 11:31:53;;;;;;;2.22;1.58;;;;;;;;;;4913266;29;20051;-81
2021/10/01 11:34:40;;;;;;;1.15;1.13;;;;;;;;;;4894699;29;20498;-81
2021/10/01 11:37:21;;;;;;;2.72;2.53;;;;;;;;;;4941652;29;20051;-81
2021/10/01 11:39:49;;;;;;;4.78;3.50;;;;;;;;;;4912690;29;20056;-81
2021/10/01 11:42:44;;;;;;;1.80;1.70;;;;;;;;;;4911944;29;20063;-82
2021/10/01 11:45:19;;;;;;;2.35;1.10;;;;;;;;;;4911384;29;20059;-83
2021/10/01 11:47:53;;;;;;;1.30;1.20;;;;;;;;;;4926865;29;20059;-82
2021/10/01 11:50:32;;;;;;;1.88;1.73;;;;;;;;;;4893473;29;20048;-82
2021/10/01 11:53:01;;;;;;;1.63;1.52;;;;;;;;;;4911731;29;20048;-82
2021/10/01 11:55:30;;;;;;;1.60;1.50;;;;;;;;;;4931253;29;20051;-83
2021/10/01 11:57:58;;;;;;;1.80;1.70;;;;;;;;;;4900710;29;20063;-80
2021/10/01 12:00:26;;;;;;;2.08;1.48;;;;;;;;;;4933728;29;20052;-81
2021/10/01 12:02:55;;;;;;;10.18;2.35;;;;;;;;;;4929366;29;20056;-81
2021/10/01 12:05:34;;;;;;;2.15;1.98;;;;;;;;;;4928782;29;20055;-85
2021/10/01 12:08:10;;;;;;;3.17;1.60;;;;;;;;;;4921499;29;20814;-83
2021/10/01 12:10:43;;;;;;;4.15;1.92;;;;;;;;;;4905556;28;20092;-84
2021/10/01 12:13:32;;;;;;;2.28;2.08;;;;;;;;;;4917551;29;20047;-85
2021/10/01 12:16:04;;;;;;;1.80;1.70;;;;;;;;;;4935275;29;20055;-82
2021/10/01 12:18:35;;;;;;;1.55;1.45;;;;;;;;;;4934970;28;20413;-79
2021/10/01 12:21:04;;;;;;;5.95;2.22;;;;;;;;;;4934397;29;20059;-80
2021/10/01 12:23:35;;;;;;;2.22;2.03;;;;;;;;;;4935427;29;20052;-79
2021/10/01 12:26:03;;;;;;;;;;;;;;;;;;4932322;29;20052;-81
2021/10/01 12:28:31;;;;;;;2.97;2.45;;;;;;;;;;4921142;29;19930;-79
2021/10/01 12:31:00;;;;;;;2.33;2.13;;;;;;;;;;4915560;29;20555;-80
2021/10/01 12:33:28;;;;;;;1.63;1.50;;;;;;;;;;4916254;29;20051;-77
2021/10/01 12:35:59;;;;;;;3.83;1.60;;;;;;;;;;4933454;29;20437;-76
2021/10/01 12:38:30;;;;;;;9.95;4.72;;;;;;;;;;4915289;29;20067;-76
2021/10/01 12:41:09;;;;;;;1.35;1.25;;;;;;;;;;4930304;28;20406;-76
2021/10/01 12:43:45;;;;;;;2.38;2.17;;;;;;;;;;4933286;29;20413;-76
2021/10/01 12:46:33;;;;;;;1.58;1.40;;;;;;;;;;4933158;29;20035;-76
2021/10/01 12:49:20;;;;;;;1.75;1.23;;;;;;;;;;4932664;28;20051;-76
2021/10/01 12:52:07;;;;;;;2.33;1.40;;;;;;;;;;4932373;29;20048;-76
2021/10/01 12:54:35;;;;;;;1.58;1.45;;;;;;;;;;4929839;29;20044;-82
2021/10/01 12:57:12;;;;;;;2.40;2.20;;;;;;;;;;4932642;28;20051;-82
2021/10/01 12:59:48;;;;;;;1.40;1.30;;;;;;;;;;4931107;29;20055;-91
2021/10/01 13:02:20;;;;;;;1.50;1.30;;;;;;;;;;4913923;29;20048;-90
2021/10/01 13:04:52;;;;;;;2.23;2.00;;;;;;;;;;4928379;29;20052;-86
2021/10/01 13:07:21;;;;;;;8.02;1.23;;;;;;;;;;4914936;29;20312;-85
2021/10/01 13:09:49;;;;;;;2.20;1.58;;;;;;;;;;4941290;29;20040;-85
2021/10/01 13:12:31;;;;;;;1.40;1.30;;;;;;;;;;4913529;29;20063;-85
2021/10/01 13:15:18;;;;;;;1.45;1.20;;;;;;;;;;4931913;29;20047;-86
2021/10/01 13:18:06;;;;;;;1.05;0.98;;;;;;;;;;4901421;29;20044;-85
2021/10/01 13:20:36;;;;;;;1.48;1.00;;;;;;;;;;4920057;28;20052;-85
2021/10/01 13:23:15;;;;;;;3.22;1.50;;;;;;;;;;4933505;29;20059;-85
2021/10/01 13:25:45;;;;;;;1.50;1.40;;;;;;;;;;4899963;29;20044;-86
2021/10/01 13:28:13;;;;;;;1.63;1.15;;;;;;;;;;4901101;29;20059;-86
2021/10/01 13:30:44;;;;;;;0.90;0.90;;;;;;;;;;4906289;29;20059;-85
2021/10/01 13:33:16;;;;;;;3.58;1.67;;;;;;;;;;4898740;29;20052;-85
2021/10/01 13:35:45;;;;;;;3.63;1.30;;;;;;;;;;4926091;29;20058;-86
2021/10/01 13:38:16;;;;;;;0.80;0.80;;;;;;;;;;4933853;28;20394;-84
2021/10/01 13:40:47;;;;;;;2.08;1.50;;;;;;;;;;4899719;29;20055;-85
2021/10/01 13:43:15;;;;;;;1.10;1.10;;;;;;;;;;4913228;29;20052;-85
2021/10/01 13:45:44;;;;;;;2.30;1.27;;;;;;;;;;4913136;29;20394;-84
2021/10/01 13:48:13;;;;;;;4.68;1.20;;;;;;;;;;4897836;29;20067;-84
2021/10/01 13:50:41;;;;;;;1.65;1.55;;;;;;;;;;4896718;29;20079;-84
2021/10/01 13:53:09;;;;;;;1.40;1.23;;;;;;;;;;4913559;29;20051;-84
2021/10/01 13:55:37;;;;;;;1.27;1.17;;;;;;;;;;4896799;29;20426;-84
2021/10/01 13:58:05;;;;;;;9.45;1.25;;;;;;;;;;4887216;29;20058;-84
2021/10/01 14:00:33;;;;;;;4.28;2.38;;;;;;;;;;4931495;28;20540;-85
2021/10/01 14:03:02;;;;;;;1.27;1.17;;;;;;;;;;4916146;29;20040;-85
2021/10/01 14:05:30;;;;;;;0.80;0.80;;;;;;;;;;4931427;29;20046;-85
2021/10/01 14:07:58;;;;;;;1.65;1.17;;;;;;;;;;4916781;29;20401;-85
2021/10/01 14:10:27;;;;;;;2.63;1.17;;;;;;;;;;4902099;28;20501;-85
2021/10/01 14:12:56;;;;;;;1.27;1.15;;;;;;;;;;4954446;28;20054;-84
2021/10/01 14:15:25;;;;;;;1.02;0.93;;;;;;;;;;4954589;28;20054;-84
2021/10/01 14:17:53;;;;;;;1.02;0.93;;;;;;;;;;4938267;28;20051;-85
2021/10/01 14:20:23;;;;;;;1.20;0.98;;;;;;;;;;4924618;29;20051;-83
2021/10/01 14:22:52;;;;;;;7.78;1.27;;;;;;;;;;4918194;29;20055;-84
2021/10/01 14:25:20;;;;;;;1.30;0.90;;;;;;;;;;4934212;29;20047;-84
2021/10/01 14:27:49;;;;;;;1.60;1.45;;;;;;;;;;4919345;29;20047;-84
2021/10/01 14:30:19;;;;;;;23.92;4.22;;;;;;;;;;4918247;29;20047;-84
2021/10/01 14:32:47;;;;;;;1.30;1.20;;;;;;;;;;4902767;29;20062;-83
2021/10/01 14:35:33;;;;;;;1.35;1.25;;;;;;;;;;4929356;28;20054;-84
2021/10/01 14:38:07;;;;;;;1.45;1.35;;;;;;;;;;4970924;28;20499;-84
2021/10/01 14:40:40;;;;;;;1.65;1.40;;;;;;;;;;4937413;28;20048;-81
2021/10/01 14:43:30;;;;;;;1.80;1.50;;;;;;;;;;4938062;29;20051;-81
2021/10/01 14:45:58;;;;;;;1.35;1.25;;;;;;;;;;4950760;28;20053;-84
2021/10/01 14:48:28;;;;;;;3.28;1.20;;;;;;;;;;4950487;29;20078;-84
2021/10/01 14:50:56;;;;;;;1.13;0.98;;;;;;;;;;4917743;29;20062;-83
2021/10/01 14:53:24;;;;;;;1.40;1.00;;;;;;;;;;4934523;29;20047;-84
2021/10/01 14:55:52;;;;;;;1.15;1.00;;;;;;;;;;4917813;29;20067;-84
2021/10/01 14:58:21;;;;;;;1.90;0.95;;;;;;;;;;4918537;29;20059;-84
2021/10/01 15:00:49;;;;;;;1.15;1.00;;;;;;;;;;4934258;29;20047;-83
2021/10/01 15:03:19;;;;;;;0.75;0.75;;;;;;;;;;4920493;28;20047;-84
2021/10/01 15:05:49;;;;;;;1.33;1.20;;;;;;;;;;4936652;28;20055;-84
2021/10/01 15:08:18;;;;;;;0.80;0.80;;;;;;;;;;4935348;28;20059;-83
2021/10/01 15:10:46;;;;;;;1.08;1.00;;;;;;;;;;4928779;29;20332;-83
2021/10/01 15:13:14;;;;;;;2.72;1.50;;;;;;;;;;4932463;29;20055;-84
2021/10/01 15:15:45;;;;;;;23.45;1.77;;;;;;;;;;4914205;29;20048;-89
2021/10/01 15:18:13;;;;;;;2.53;1.20;;;;;;;;;;4928428;29;20044;-83
2021/10/01 15:20:42;;;;;;;4.65;1.52;;;;;;;;;;4913385;29;20047;-86
2021/10/01 15:23:11;;;;;;;3.22;1.95;;;;;;;;;;4896723;29;20051;-85
2021/10/01 15:25:40;;;;;;;1.95;1.10;;;;;;;;;;4929830;29;20059;-85
2021/10/01 15:28:09;;;;;;;2.17;1.23;;;;;;;;;;4932389;29;20066;-83
2021/10/01 15:30:38;;;;;;;0.77;0.77;;;;;;;;;;4918572;29;20157;-84
2021/10/01 15:33:07;;;;;;;1.42;1.25;;;;;;;;;;4933427;29;20055;-85
2021/10/01 15:35:35;;;;;;;6.00;1.00;;;;;;;;;;4914419;29;20059;-84
2021/10/01 15:38:03;;;;;;;0.98;0.98;;;;;;;;;;4937350;29;20063;-85
2021/10/01 15:40:33;;;;;;;4.25;1.25;;;;;;;;;;4944463;29;20047;-85
2021/10/01 15:43:05;;;;;;;1.17;1.08;;;;;;;;;;4918550;29;20055;-84
2021/10/01 15:45:35;;;;;;;1.55;1.45;;;;;;;;;;4932487;29;20393;-84
2021/10/01 15:48:03;;;;;;;1.20;1.20;;;;;;;;;;4919007;29;20157;-85
2021/10/01 15:50:32;;;;;;;2.30;1.45;;;;;;;;;;4902301;29;20044;-84
2021/10/01 15:53:00;;;;;;;1.45;1.35;;;;;;;;;;4918885;29;20067;-84
2021/10/01 15:55:28;;;;;;;0.80;0.80;;;;;;;;;;4935615;29;20052;-85
2021/10/01 15:57:57;;;;;;;1.10;1.05;;;;;;;;;;4934331;29;20051;-85
2021/10/01 16:00:25;;;;;;;5.18;1.00;;;;;;;;;;4934551;29;20059;-86
2021/10/01 16:02:54;;;;;;;1.05;1.02;;;;;;;;;;4902466;29;20055;-85
2021/10/01 16:05:22;;;;;;;4.10;2.00;;;;;;;;;;4933779;28;20047;-84
2021/10/01 16:07:54;;;;;;;2.15;1.58;;;;;;;;;;4934249;29;20468;-85
2021/10/01 16:10:22;;;;;;;2.92;2.70;;;;;;;;;;4934037;28;20063;-85
2021/10/01 16:12:51;;;;;;;1.95;1.13;;;;;;;;;;4929664;28;20053;-83
2021/10/01 16:15:20;;;;;;;1.38;1.27;;;;;;;;;;4928487;28;21090;-84
2021/10/01 16:17:50;;;;;;;4.70;1.50;;;;;;;;;;4930697;28;20038;-84
2021/10/01 16:20:22;;;;;;;1.10;1.08;;;;;;;;;;4944306;28;20053;-84
2021/10/01 16:22:50;;;;;;;1.52;1.00;;;;;;;;;;4939320;28;20046;-84
2021/10/01 16:25:19;;;;;;;2.42;0.98;;;;;;;;;;4943885;28;20043;-84
2021/10/01 16:27:47;;;;;;;0.73;0.73;;;;;;;;;;4959846;28;20385;-84
2021/10/01 16:30:16;;;;;;;4.20;0.75;;;;;;;;;;4937031;29;20055;-84
2021/10/01 16:32:44;;;;;;;1.40;0.80;;;;;;;;;;4905198;29;20086;-85
2021/10/01 16:35:13;;;;;;;1.33;0.82;;;;;;;;;;4929143;28;20051;-85
2021/10/01 16:37:41;;;;;;;2.58;0.98;;;;;;;;;;4955295;28;20070;-85
2021/10/01 16:40:09;;;;;;;4.97;1.10;;;;;;;;;;4921991;28;20051;-85
2021/10/01 16:42:37;;;;;;;3.28;1.30;;;;;;;;;;4920473;29;20058;-85
2021/10/01 16:45:06;;;;;;;2.25;1.50;;;;;;;;;;4920651;29;20075;-85
2021/10/01 16:47:35;;;;;;;2.97;2.70;;;;;;;;;;4921786;29;20590;-84
2021/10/01 16:50:04;;;;;;;1.25;1.13;;;;;;;;;;4936786;29;20054;-85
2021/10/01 16:52:33;;;;;;;1.63;1.13;;;;;;;;;;4936967;29;20047;-85